Arequito, Argentina
Current Conditions -  °F | °C
As of 11:00 PM on Saturday 25 Oct 2014 (Local Time) from SAAR Reporting Station
Clear Clear  
Wind Chill: 77°   Ceiling: Unl
Heat Index: 79°   Visibility: 6mi
Dew Point: 64°   Wind: 7mph
Humidity: 65%   Direction: 50°NE
Pressure: 29.8"   Gusts: NA
Location:  33.15°S, 61.47°W
Report Text: SAAR 260200Z 05006KT CAVOK 25/18 Q1009
Loading
Personal Weather Stations






























Interactive Weather Map
Tropical Storm Tracking
New forecast layout! Learn more

10-Day Weather Forecast

Advertisements
Track Severe Weather on mobile